Time;durP1;ratioP1;P1;durP2;ratioP2;P2;SDS_P1;SDS_P2;PMS_P1;PMS_P2;Temp;Humidity;BMP_temperature;BMP_pressure;BME280_temperature;BME280_humidity;BME280_pressure;Samples;Min_cycle;Max_cycle;Signal;HPM_P1;HPM_P2
2023/08/01 00:00:49;;;;;;;4.35;1.63;;;15.70;99.90;;;;;;5014645;28;20038;-72
2023/08/01 00:03:15;;;;;;;3.47;1.63;;;15.70;99.90;;;;;;5017261;28;20506;-71
2023/08/01 00:05:47;;;;;;;6.43;1.60;;;15.70;99.90;;;;;;5023059;28;20108;-74
2023/08/01 00:08:13;;;;;;;5.38;2.40;;;15.70;99.90;;;;;;5014442;28;20080;-72
2023/08/01 00:10:39;;;;;;;8.27;1.95;;;15.70;99.90;;;;;;5009924;28;20054;-81
2023/08/01 00:13:05;;;;;;;3.13;2.13;;;15.60;99.90;;;;;;5010713;28;20029;-72
2023/08/01 00:15:31;;;;;;;6.37;1.73;;;15.60;99.90;;;;;;5019344;28;20350;-71
2023/08/01 00:17:57;;;;;;;3.57;1.70;;;15.60;99.90;;;;;;5025317;28;20051;-71
2023/08/01 00:20:22;;;;;;;7.40;1.90;;;15.60;99.90;;;;;;5011384;28;20054;-80
2023/08/01 00:22:48;;;;;;;4.90;1.37;;;15.60;99.90;;;;;;5009841;28;20332;-72
2023/08/01 00:25:14;;;;;;;5.83;1.90;;;15.60;99.90;;;;;;5009229;28;20337;-71
2023/08/01 00:27:40;;;;;;;4.67;1.70;;;15.60;99.90;;;;;;5008282;28;20324;-71
2023/08/01 00:30:06;;;;;;;4.63;1.40;;;15.60;99.90;;;;;;5010084;28;20018;-71
2023/08/01 00:32:32;;;;;;;1.85;1.23;;;15.60;99.90;;;;;;5014591;28;20432;-72
2023/08/01 00:34:58;;;;;;;2.80;1.80;;;15.60;99.90;;;;;;5010483;28;20029;-81
2023/08/01 00:37:23;;;;;;;3.83;1.90;;;15.60;99.90;;;;;;5010078;28;20079;-72
2023/08/01 00:39:49;;;;;;;4.27;1.63;;;15.60;99.90;;;;;;5006243;28;20030;-71
2023/08/01 00:42:16;;;;;;;7.10;1.83;;;15.60;99.90;;;;;;5005195;28;20061;-80
2023/08/01 00:44:41;;;;;;;5.30;2.03;;;15.60;99.90;;;;;;5037213;28;20022;-72
2023/08/01 00:47:08;;;;;;;5.80;2.70;;;15.60;99.90;;;;;;5011221;28;20021;-71
2023/08/01 00:49:34;;;;;;;;;;;15.50;99.90;;;;;;5011959;28;20077;-72
2023/08/01 00:52:00;;;;;;;4.80;2.05;;;15.50;99.90;;;;;;5009055;28;20471;-72
2023/08/01 00:54:26;;;;;;;3.77;1.77;;;15.50;99.90;;;;;;5004619;28;20036;-72
2023/08/01 00:56:52;;;;;;;3.60;1.98;;;15.50;99.90;;;;;;5004793;28;20021;-71
2023/08/01 00:59:18;;;;;;;6.80;1.87;;;15.40;99.90;;;;;;5006032;28;20080;-82
2023/08/01 01:01:43;;;;;;;5.00;1.80;;;15.40;99.90;;;;;;5013655;28;20045;-82
2023/08/01 01:04:09;;;;;;;8.27;2.70;;;15.40;99.90;;;;;;5023428;28;20371;-71
2023/08/01 01:06:44;;;;;;;9.33;2.53;;;15.40;99.90;;;;;;5026057;28;20013;-71
2023/08/01 01:09:18;;;;;;;6.10;2.25;;;15.40;99.90;;;;;;5029880;28;20329;-71
2023/08/01 01:11:44;;;;;;;5.82;2.33;;;15.40;99.90;;;;;;5018557;28;20082;-71
2023/08/01 01:14:10;;;;;;;9.68;1.98;;;15.40;99.90;;;;;;5026867;28;20033;-71
2023/08/01 01:16:36;;;;;;;3.03;1.87;;;15.40;99.90;;;;;;5030018;28;20324;-72
2023/08/01 01:19:02;;;;;;;5.50;2.00;;;15.40;99.90;;;;;;5027272;28;20030;-71
2023/08/01 01:21:28;;;;;;;9.25;2.67;;;15.40;99.90;;;;;;5015504;28;20069;-71
2023/08/01 01:23:55;;;;;;;7.80;2.30;;;15.30;99.90;;;;;;5026545;28;20103;-72
2023/08/01 01:26:21;;;;;;;8.65;2.63;;;15.30;99.90;;;;;;5016907;28;20030;-72
2023/08/01 01:28:51;;;;;;;3.78;2.42;;;15.40;99.90;;;;;;5011229;28;20030;-71
2023/08/01 01:31:17;;;;;;;5.20;2.20;;;15.30;99.90;;;;;;5013235;28;20087;-79
2023/08/01 01:33:43;;;;;;;9.07;2.33;;;15.30;99.90;;;;;;5027013;28;20052;-72
2023/08/01 01:36:09;;;;;;;3.03;2.10;;;15.30;99.90;;;;;;5013691;28;20421;-71
2023/08/01 01:38:35;;;;;;;6.72;2.42;;;15.30;99.90;;;;;;5004097;28;20461;-81
2023/08/01 01:41:00;;;;;;;4.33;1.97;;;15.40;99.90;;;;;;5011886;28;20168;-73
2023/08/01 01:43:26;;;;;;;11.17;2.53;;;15.40;99.90;;;;;;5035706;28;20431;-72
2023/08/01 01:45:52;;;;;;;11.13;2.63;;;15.40;99.90;;;;;;5013978;28;20401;-71
2023/08/01 01:48:18;;;;;;;6.53;2.27;;;15.30;99.90;;;;;;5014538;28;20029;-81
2023/08/01 01:50:43;;;;;;;8.33;3.27;;;15.40;99.90;;;;;;5012164;28;20026;-72
2023/08/01 01:53:09;;;;;;;4.80;2.30;;;15.40;99.90;;;;;;5014790;28;20038;-71
2023/08/01 01:55:35;;;;;;;5.37;2.37;;;15.40;99.90;;;;;;5013401;28;20030;-71
2023/08/01 01:58:01;;;;;;;5.23;2.00;;;15.50;99.90;;;;;;5017780;28;20467;-71
2023/08/01 02:00:26;;;;;;;5.33;2.63;;;15.50;99.90;;;;;;5017525;28;20030;-72
2023/08/01 02:02:52;;;;;;;5.87;2.20;;;15.50;99.90;;;;;;5017883;28;20096;-71
2023/08/01 02:05:18;;;;;;;4.53;2.10;;;15.50;99.90;;;;;;5019041;28;20033;-81
2023/08/01 02:07:43;;;;;;;8.37;2.77;;;15.60;99.90;;;;;;5017515;28;20475;-71
2023/08/01 02:10:10;;;;;;;9.77;2.83;;;15.60;99.90;;;;;;5033727;28;20044;-71
2023/08/01 02:12:35;;;;;;;5.65;2.50;;;15.50;99.90;;;;;;5015949;28;20029;-71
2023/08/01 02:15:02;;;;;;;11.30;2.23;;;15.60;99.90;;;;;;5017623;28;20080;-71
2023/08/01 02:17:27;;;;;;;5.20;2.40;;;15.60;99.90;;;;;;5015656;28;20124;-71
2023/08/01 02:19:53;;;;;;;4.67;2.60;;;15.60;99.90;;;;;;5017645;28;20037;-71
2023/08/01 02:22:19;;;;;;;10.23;2.87;;;15.70;99.90;;;;;;5031793;28;20060;-84
2023/08/01 02:24:44;;;;;;;14.37;2.50;;;15.60;99.90;;;;;;5017281;28;20121;-71
2023/08/01 02:27:10;;;;;;;4.37;2.37;;;15.70;99.90;;;;;;5018527;28;20795;-71
2023/08/01 02:29:36;;;;;;;7.37;2.33;;;15.70;99.90;;;;;;5016927;28;20437;-71
2023/08/01 02:32:02;;;;;;;6.30;2.63;;;15.70;99.90;;;;;;5019071;28;20022;-72
2023/08/01 02:34:27;;;;;;;8.40;2.40;;;15.70;99.90;;;;;;5016877;28;20026;-72
2023/08/01 02:36:53;;;;;;;5.40;2.17;;;15.70;99.90;;;;;;5017720;28;20026;-71
2023/08/01 02:39:19;;;;;;;5.53;1.90;;;15.70;99.90;;;;;;5016403;28;20037;-93
2023/08/01 02:41:44;;;;;;;9.63;2.27;;;15.70;99.90;;;;;;5019245;28;20030;-71
2023/08/01 02:44:10;;;;;;;9.80;2.50;;;15.70;99.90;;;;;;5016116;28;20034;-71
2023/08/01 02:46:36;;;;;;;4.60;2.03;;;15.70;99.90;;;;;;5016697;28;20114;-71
2023/08/01 02:49:02;;;;;;;5.20;2.37;;;15.70;99.90;;;;;;5017249;28;20026;-71
2023/08/01 02:51:28;;;;;;;3.92;2.30;;;15.70;99.90;;;;;;5013902;28;20018;-72
2023/08/01 02:53:54;;;;;;;6.30;2.03;;;15.70;99.90;;;;;;5018378;28;20040;-72
2023/08/01 02:56:19;;;;;;;4.70;2.27;;;15.80;99.90;;;;;;5005659;28;20037;-80
2023/08/01 02:58:45;;;;;;;3.03;1.87;;;15.80;99.90;;;;;;5021898;28;20022;-71
2023/08/01 03:01:11;;;;;;;2.40;1.47;;;15.80;99.90;;;;;;5016231;28;20046;-71
2023/08/01 03:03:37;;;;;;;5.10;1.52;;;15.80;99.90;;;;;;5016375;28;20030;-71
2023/08/01 03:06:03;;;;;;;7.67;1.20;;;15.80;99.90;;;;;;5015729;28;20030;-71
2023/08/01 03:08:29;;;;;;;3.17;1.80;;;15.70;99.90;;;;;;5016400;28;20030;-70
2023/08/01 03:10:55;;;;;;;5.10;1.27;;;15.70;99.90;;;;;;5015533;28;20088;-70
2023/08/01 03:13:21;;;;;;;4.85;1.50;;;15.60;99.90;;;;;;5016183;28;20131;-71
2023/08/01 03:15:47;;;;;;;6.65;2.05;;;15.60;99.90;;;;;;5021242;28;20037;-79
2023/08/01 03:18:12;;;;;;;5.40;1.77;;;15.60;99.90;;;;;;5023426;28;20317;-71
2023/08/01 03:20:38;;;;;;;4.00;1.43;;;15.70;99.90;;;;;;5014343;28;20033;-70
2023/08/01 03:23:04;;;;;;;3.90;2.00;;;15.70;99.90;;;;;;5016904;28;20033;-70
2023/08/01 03:25:30;;;;;;;4.57;2.20;;;15.70;99.90;;;;;;5023255;28;20054;-71
2023/08/01 03:27:56;;;;;;;4.65;1.63;;;15.70;99.90;;;;;;5016709;28;20029;-71
2023/08/01 03:30:22;;;;;;;8.55;2.42;;;15.70;99.90;;;;;;5015804;28;20037;-70
2023/08/01 03:32:48;;;;;;;3.93;2.17;;;15.70;99.90;;;;;;5014501;28;20059;-84
2023/08/01 03:35:14;;;;;;;4.47;2.13;;;15.70;99.90;;;;;;5016561;28;20025;-71
2023/08/01 03:37:40;;;;;;;8.02;2.28;;;15.70;99.90;;;;;;5016160;28;20471;-70
2023/08/01 03:40:10;;;;;;;9.63;2.35;;;15.70;99.90;;;;;;5015668;28;20041;-71
2023/08/01 03:42:40;;;;;;;8.00;2.58;;;15.70;99.90;;;;;;5014639;28;20029;-71
2023/08/01 03:45:06;;;;;;;4.82;2.50;;;15.80;99.90;;;;;;5015311;28;20038;-71
2023/08/01 03:47:32;;;;;;;11.18;2.92;;;15.70;99.90;;;;;;5015898;28;20316;-71
2023/08/01 03:49:58;;;;;;;6.03;2.10;;;15.80;99.90;;;;;;5015960;28;20026;-85
2023/08/01 03:52:24;;;;;;;5.87;2.20;;;15.80;99.90;;;;;;5016234;28;20452;-71
2023/08/01 03:54:54;;;;;;;10.30;2.60;;;15.80;99.90;;;;;;5014552;28;20029;-71
2023/08/01 03:57:20;;;;;;;7.78;2.72;;;15.80;99.90;;;;;;5015418;28;20080;-78
2023/08/01 03:59:48;;;;;;;9.93;2.87;;;15.80;99.90;;;;;;5015172;28;20033;-71
2023/08/01 04:02:14;;;;;;;6.60;2.78;;;15.80;99.90;;;;;;5016028;28;20029;-71
2023/08/01 04:04:40;;;;;;;8.63;2.90;;;15.80;99.90;;;;;;5015465;28;20030;-71
2023/08/01 04:07:05;;;;;;;8.87;2.73;;;15.80;99.90;;;;;;5014979;28;20080;-71
2023/08/01 04:09:31;;;;;;;7.70;3.10;;;15.90;99.90;;;;;;5013865;28;20032;-71
2023/08/01 04:11:57;;;;;;;12.13;3.37;;;15.80;99.90;;;;;;5025131;28;20109;-71
2023/08/01 04:14:22;;;;;;;6.07;3.17;;;15.80;99.90;;;;;;5031216;28;20116;-72
2023/08/01 04:16:48;;;;;;;15.53;3.93;;;15.90;99.90;;;;;;5015279;28;20065;-71
2023/08/01 04:19:14;;;;;;;13.63;3.37;;;15.90;99.90;;;;;;5009875;28;20611;-71
2023/08/01 04:21:40;;;;;;;9.77;3.10;;;15.90;99.90;;;;;;5020686;28;20036;-86
2023/08/01 04:24:05;;;;;;;11.43;2.90;;;15.90;99.90;;;;;;5015073;28;20027;-84
2023/08/01 04:26:31;;;;;;;9.83;2.67;;;15.90;99.90;;;;;;5015717;28;20021;-71
2023/08/01 04:28:57;;;;;;;6.93;2.63;;;15.90;99.90;;;;;;5014202;28;20360;-72
2023/08/01 04:31:22;;;;;;;4.00;2.33;;;15.90;99.90;;;;;;5015665;28;20014;-72
2023/08/01 04:33:48;;;;;;;5.90;2.90;;;16.00;99.90;;;;;;5015610;28;20033;-71
2023/08/01 04:36:14;;;;;;;8.63;3.37;;;15.90;99.90;;;;;;5004240;28;20026;-72
2023/08/01 04:38:40;;;;;;;6.37;2.20;;;15.90;99.90;;;;;;5009734;28;20041;-72
2023/08/01 04:41:06;;;;;;;11.73;2.40;;;15.90;99.90;;;;;;5014612;28;20026;-82
2023/08/01 04:43:32;;;;;;;11.60;2.85;;;15.90;99.90;;;;;;5015554;28;20037;-72
2023/08/01 04:45:57;;;;;;;11.07;3.20;;;15.90;99.90;;;;;;5008629;28;20349;-72
2023/08/01 04:48:23;;;;;;;10.43;2.53;;;15.90;99.90;;;;;;5014272;28;20116;-72
2023/08/01 04:50:48;;;;;;;8.33;2.93;;;15.90;99.90;;;;;;5015068;28;20054;-82
2023/08/01 04:53:14;;;;;;;17.77;3.43;;;15.90;99.90;;;;;;5001242;28;20041;-73
2023/08/01 04:55:40;;;;;;;13.50;2.70;;;15.90;99.90;;;;;;5014249;28;20038;-74
2023/08/01 04:58:06;;;;;;;2.60;1.77;;;15.90;99.90;;;;;;5014292;28;20360;-72
2023/08/01 05:00:32;;;;;;;8.47;2.90;;;15.90;99.90;;;;;;5027813;28;20085;-74
2023/08/01 05:02:57;;;;;;;8.87;2.53;;;15.90;99.90;;;;;;5016549;28;20044;-73
2023/08/01 05:05:23;;;;;;;6.03;2.20;;;15.80;99.90;;;;;;5010028;28;20431;-73
2023/08/01 05:07:49;;;;;;;5.37;2.10;;;15.80;99.90;;;;;;5015574;28;20072;-87
2023/08/01 05:10:14;;;;;;;8.00;2.20;;;15.80;99.90;;;;;;5028981;28;20026;-72
2023/08/01 05:12:40;;;;;;;7.83;1.93;;;15.80;99.90;;;;;;5006773;28;20766;-73
2023/08/01 05:15:06;;;;;;;3.40;1.67;;;15.80;99.90;;;;;;5002075;28;20117;-72
2023/08/01 05:17:32;;;;;;;6.82;2.50;;;15.80;99.90;;;;;;5001814;28;20026;-72
2023/08/01 05:19:58;;;;;;;5.50;2.03;;;15.80;99.90;;;;;;5003829;28;20038;-72
2023/08/01 05:22:23;;;;;;;7.83;2.20;;;15.80;99.90;;;;;;5007888;28;20058;-72
2023/08/01 05:24:49;;;;;;;8.73;2.27;;;15.80;99.90;;;;;;5003799;28;20517;-85
2023/08/01 05:27:15;;;;;;;7.47;2.23;;;15.90;99.90;;;;;;5006190;28;20030;-72
2023/08/01 05:29:41;;;;;;;2.97;1.90;;;16.00;99.90;;;;;;5002267;28;20029;-72
2023/08/01 05:32:07;;;;;;;8.43;2.50;;;15.90;99.90;;;;;;5008746;28;20401;-72
2023/08/01 05:34:33;;;;;;;7.28;3.28;;;16.00;99.90;;;;;;5006209;28;20026;-71
2023/08/01 05:36:58;;;;;;;5.93;2.13;;;16.00;99.90;;;;;;5007274;28;20037;-73
2023/08/01 05:39:24;;;;;;;9.27;2.10;;;16.00;99.90;;;;;;5019871;28;20034;-73
2023/08/01 05:41:50;;;;;;;9.60;2.63;;;16.00;99.90;;;;;;5005366;28;20051;-72
2023/08/01 05:44:16;;;;;;;2.90;1.80;;;15.90;99.90;;;;;;5001152;28;20038;-73
2023/08/01 05:46:42;;;;;;;5.37;1.83;;;15.90;99.90;;;;;;5001980;28;20027;-72
2023/08/01 05:49:07;;;;;;;11.70;2.40;;;15.90;99.90;;;;;;5003812;28;20405;-72
2023/08/01 05:51:33;;;;;;;12.57;2.43;;;15.80;99.90;;;;;;4999602;28;20073;-72
2023/08/01 05:53:59;;;;;;;4.53;2.03;;;15.80;99.90;;;;;;5014467;28;20030;-73
2023/08/01 05:56:24;;;;;;;6.57;1.77;;;15.80;99.90;;;;;;5011301;28;20356;-72
2023/08/01 05:58:50;;;;;;;6.33;1.73;;;15.80;99.90;;;;;;5008159;28;20034;-72
2023/08/01 06:01:16;;;;;;;6.67;1.60;;;15.80;99.90;;;;;;5008794;28;20042;-86
2023/08/01 06:03:42;;;;;;;8.20;2.08;;;15.80;99.90;;;;;;5013595;28;20025;-73
2023/08/01 06:06:08;;;;;;;3.80;1.50;;;15.80;99.90;;;;;;5025517;28;20088;-72
2023/08/01 06:08:34;;;;;;;6.47;1.97;;;15.90;99.90;;;;;;5016387;28;20022;-72
2023/08/01 06:10:59;;;;;;;7.10;1.37;;;15.80;99.90;;;;;;5012658;28;20105;-72
2023/08/01 06:13:25;;;;;;;4.23;1.67;;;15.90;99.90;;;;;;5007605;28;20128;-72
2023/08/01 06:15:51;;;;;;;6.80;2.27;;;15.90;99.90;;;;;;5003203;28;20061;-73
2023/08/01 06:18:16;;;;;;;3.77;1.80;;;15.90;99.90;;;;;;5008209;28;20029;-77
2023/08/01 06:20:42;;;;;;;11.63;2.03;;;15.90;99.90;;;;;;5006192;28;20022;-73
2023/08/01 06:23:08;;;;;;;10.87;2.13;;;16.00;99.90;;;;;;5021766;28;20025;-72
2023/08/01 06:25:33;;;;;;;6.80;2.00;;;16.00;99.90;;;;;;5019904;28;20045;-72
2023/08/01 06:27:59;;;;;;;7.97;1.77;;;16.20;99.90;;;;;;5021660;28;20436;-87
2023/08/01 06:30:25;;;;;;;3.67;1.70;;;16.20;99.90;;;;;;5021814;28;21730;-72
2023/08/01 06:32:50;;;;;;;9.03;2.07;;;16.30;99.90;;;;;;5024284;28;20038;-72
2023/08/01 06:35:16;;;;;;;11.63;2.40;;;16.30;99.90;;;;;;5029608;28;20065;-72
2023/08/01 06:37:42;;;;;;;6.67;1.77;;;16.40;99.90;;;;;;5016799;28;20025;-81
2023/08/01 06:40:08;;;;;;;10.33;2.10;;;16.40;99.90;;;;;;5006407;28;20026;-88
2023/08/01 06:42:33;;;;;;;2.50;1.58;;;16.50;99.90;;;;;;5011879;28;20060;-72
2023/08/01 06:44:59;;;;;;;6.37;1.60;;;16.60;99.90;;;;;;5002404;28;20038;-85
2023/08/01 06:47:25;;;;;;;4.27;1.43;;;16.60;99.90;;;;;;5023237;28;20037;-73
2023/08/01 06:49:51;;;;;;;7.97;1.67;;;16.60;99.90;;;;;;5017502;28;20108;-71
2023/08/01 06:52:16;;;;;;;7.93;1.90;;;16.50;99.90;;;;;;5018158;28;20165;-72
2023/08/01 06:54:42;;;;;;;7.90;2.00;;;16.50;99.90;;;;;;5030020;28;20071;-87
2023/08/01 06:57:08;;;;;;;5.40;1.50;;;16.50;99.90;;;;;;5036454;28;20025;-73
2023/08/01 06:59:33;;;;;;;3.50;1.43;;;16.50;99.90;;;;;;5030580;28;20031;-72
2023/08/01 07:02:00;;;;;;;4.60;1.70;;;16.50;99.90;;;;;;5023447;28;20567;-73
2023/08/01 07:04:26;;;;;;;;;;;16.60;99.90;;;;;;5022679;28;20084;-72
2023/08/01 07:06:51;;;;;;;6.10;1.37;;;16.60;99.90;;;;;;5028553;28;19908;-73
2023/08/01 07:09:17;;;;;;;4.00;1.83;;;16.60;99.90;;;;;;5033217;28;20025;-87
2023/08/01 07:11:43;;;;;;;11.83;1.87;;;16.50;99.90;;;;;;5022872;28;20021;-73
2023/08/01 07:14:09;;;;;;;6.00;1.37;;;16.50;99.90;;;;;;5029921;28;20032;-73
2023/08/01 07:16:34;;;;;;;3.30;1.40;;;16.50;99.90;;;;;;5024540;28;20041;-72
2023/08/01 07:19:01;;;;;;;6.20;1.77;;;16.50;99.90;;;;;;5031016;28;20035;-72
2023/08/01 07:21:27;;;;;;;9.20;1.88;;;16.50;99.90;;;;;;5013795;28;20410;-72
2023/08/01 07:23:52;;;;;;;3.83;1.30;;;16.60;99.90;;;;;;5015990;28;20033;-72
2023/08/01 07:26:18;;;;;;;3.83;1.50;;;16.60;99.90;;;;;;5019333;28;20053;-84
2023/08/01 07:28:44;;;;;;;3.23;1.57;;;16.50;99.90;;;;;;5017677;28;20037;-83
2023/08/01 07:31:09;;;;;;;6.97;1.60;;;16.40;99.90;;;;;;5028258;28;20056;-74
2023/08/01 07:33:35;;;;;;;3.40;1.00;;;16.40;99.90;;;;;;5025483;28;20033;-73
2023/08/01 07:36:01;;;;;;;6.95;1.65;;;16.60;99.90;;;;;;5011490;28;20412;-73
2023/08/01 07:38:27;;;;;;;4.72;1.95;;;16.80;99.90;;;;;;5016657;28;20034;-74
2023/08/01 07:40:55;;;;;;;9.43;1.73;;;17.10;99.90;;;;;;5050137;28;20080;-74
2023/08/01 07:43:20;;;;;;;7.20;2.30;;;17.20;99.90;;;;;;5024616;28;20115;-79
2023/08/01 07:45:46;;;;;;;7.97;2.83;;;17.20;99.90;;;;;;5031043;28;20467;-85
2023/08/01 07:48:12;;;;;;;2.07;1.27;;;17.20;99.90;;;;;;5019742;28;20021;-73
2023/08/01 07:50:38;;;;;;;5.57;1.30;;;17.10;99.90;;;;;;5047209;28;20029;-74
2023/08/01 07:53:03;;;;;;;4.47;1.63;;;17.00;99.90;;;;;;5022329;28;20274;-72
2023/08/01 07:55:32;;;;;;;3.53;1.20;;;16.80;99.90;;;;;;5019625;28;20679;-91
2023/08/01 07:57:58;;;;;;;1.88;0.95;;;16.70;99.90;;;;;;5022108;28;20080;-73
2023/08/01 08:00:24;;;;;;;3.37;1.27;;;16.80;99.90;;;;;;5014680;28;20026;-72
2023/08/01 08:02:49;;;;;;;9.60;2.07;;;16.90;99.90;;;;;;5021743;28;20105;-86
2023/08/01 08:05:15;;;;;;;7.73;1.90;;;17.00;99.90;;;;;;5023368;28;20061;-74
2023/08/01 08:07:41;;;;;;;7.13;2.03;;;16.90;99.90;;;;;;5019581;28;20033;-73
2023/08/01 08:10:07;;;;;;;4.80;1.70;;;16.90;99.90;;;;;;5021581;28;20077;-75
2023/08/01 08:12:33;;;;;;;3.33;1.48;;;16.70;99.90;;;;;;5013405;28;20022;-73
2023/08/01 08:14:58;;;;;;;6.37;1.80;;;16.50;99.90;;;;;;5015959;28;20071;-72
2023/08/01 08:17:24;;;;;;;6.87;2.73;;;16.40;99.90;;;;;;5027395;28;20364;-73
2023/08/01 08:19:50;;;;;;;4.77;1.77;;;16.40;99.90;;;;;;5015705;28;20034;-75
2023/08/01 08:22:15;;;;;;;4.37;2.07;;;16.40;99.90;;;;;;5019156;28;20029;-73
2023/08/01 08:24:41;;;;;;;12.13;2.63;;;16.60;99.90;;;;;;5022464;28;20080;-72
2023/08/01 08:27:07;;;;;;;4.67;2.17;;;16.80;99.90;;;;;;5025926;28;20025;-73
2023/08/01 08:29:33;;;;;;;4.10;1.83;;;16.90;99.90;;;;;;5024194;28;20071;-72
2023/08/01 08:31:59;;;;;;;7.60;1.97;;;16.90;99.90;;;;;;5022743;28;20357;-73
2023/08/01 08:34:24;;;;;;;6.00;1.50;;;16.90;99.90;;;;;;5010834;28;20068;-72
2023/08/01 08:36:51;;;;;;;3.73;1.40;;;16.90;99.90;;;;;;5010373;28;20038;-72
2023/08/01 08:39:18;;;;;;;;;;;17.00;99.90;;;;;;5010430;28;20030;-84
2023/08/01 08:41:51;;;;;;;5.43;2.13;;;17.00;99.90;;;;;;5010865;28;19972;-73
2023/08/01 08:44:21;;;;;;;10.35;2.08;;;17.00;99.90;;;;;;5007829;28;20018;-86
2023/08/01 08:46:52;;;;;;;7.03;1.75;;;17.10;99.90;;;;;;5005965;28;20030;-72
2023/08/01 08:49:20;;;;;;;6.85;1.67;;;17.20;99.90;;;;;;5021197;28;20029;-87
2023/08/01 08:51:47;;;;;;;8.40;2.33;;;17.30;99.90;;;;;;5017665;28;20381;-73
2023/08/01 08:54:15;;;;;;;7.05;1.60;;;17.60;99.90;;;;;;5019766;28;20090;-72
2023/08/01 08:56:41;;;;;;;7.18;1.70;;;17.80;99.90;;;;;;5010967;28;20044;-74
2023/08/01 08:59:10;;;;;;;7.63;1.63;;;18.00;99.90;;;;;;5019479;28;20075;-75
2023/08/01 09:01:36;;;;;;;3.70;1.70;;;18.30;99.90;;;;;;5048470;28;20083;-74
2023/08/01 09:04:02;;;;;;;;;;;18.50;99.90;;;;;;5018687;28;20416;-74
2023/08/01 09:07:07;;;;;;;5.35;1.33;;;18.40;99.90;;;;;;5018159;28;19924;-73
2023/08/01 09:09:34;;;;;;;6.13;1.48;;;18.20;99.90;;;;;;4999054;28;20408;-74
2023/08/01 09:12:00;;;;;;;7.43;1.42;;;17.90;99.90;;;;;;5009914;28;20128;-85
2023/08/01 09:14:26;;;;;;;6.47;1.30;;;17.90;99.90;;;;;;5023627;28;20109;-72
2023/08/01 09:16:52;;;;;;;3.77;1.30;;;17.90;99.90;;;;;;5007727;28;20041;-74
2023/08/01 09:19:19;;;;;;;5.35;1.40;;;17.90;99.90;;;;;;5014235;28;20030;-84
2023/08/01 09:21:46;;;;;;;5.65;1.35;;;18.00;99.90;;;;;;5008930;28;20111;-73
2023/08/01 09:24:13;;;;;;;6.25;1.73;;;18.20;99.90;;;;;;5013799;28;20021;-74
2023/08/01 09:26:42;;;;;;;2.28;1.67;;;18.40;99.90;;;;;;5026758;28;20050;-72
2023/08/01 09:29:08;;;;;;;6.40;1.10;;;18.60;99.90;;;;;;5016395;28;20432;-72
2023/08/01 09:31:35;;;;;;;2.63;1.25;;;18.80;99.90;;;;;;5015057;28;20026;-74
2023/08/01 09:34:05;;;;;;;4.97;1.67;;;19.00;99.90;;;;;;5020184;28;20061;-73
2023/08/01 09:36:32;;;;;;;5.55;1.33;;;19.10;99.90;;;;;;5007176;28;20341;-72
2023/08/01 09:38:59;;;;;;;6.18;1.45;;;19.00;99.90;;;;;;5010436;28;20060;-74
2023/08/01 09:41:25;;;;;;;3.45;1.42;;;18.90;99.90;;;;;;5011447;28;20038;-73
2023/08/01 09:43:51;;;;;;;4.88;1.27;;;18.90;99.90;;;;;;5007420;28;20038;-74
2023/08/01 09:46:17;;;;;;;4.00;1.20;;;19.20;99.90;;;;;;5011982;28;20421;-88
2023/08/01 09:48:43;;;;;;;4.30;1.30;;;19.40;99.90;;;;;;5021412;28;20022;-73
2023/08/01 09:51:10;;;;;;;5.95;1.35;;;19.60;99.90;;;;;;5014970;28;20313;-72
2023/08/01 09:53:46;;;;;;;;;;;19.70;99.90;;;;;;5012426;28;20038;-73
2023/08/01 09:56:15;;;;;;;3.20;0.93;;;19.90;99.90;;;;;;5011314;28;19914;-73
2023/08/01 09:58:43;;;;;;;8.52;1.25;;;19.70;99.90;;;;;;5007627;28;20037;-73
2023/08/01 10:01:09;;;;;;;5.45;1.58;;;19.40;99.90;;;;;;5006443;28;20029;-84
2023/08/01 10:03:34;;;;;;;6.55;1.52;;;19.10;99.90;;;;;;4999051;28;20117;-73
2023/08/01 10:06:01;;;;;;;3.17;1.43;;;18.90;99.90;;;;;;5006851;28;20546;-73
2023/08/01 10:08:29;;;;;;;3.75;1.15;;;18.90;99.90;;;;;;5047306;28;20100;-72
2023/08/01 10:10:56;;;;;;;3.13;1.05;;;19.20;99.90;;;;;;5010308;28;20064;-73
2023/08/01 10:13:24;;;;;;;2.42;1.25;;;19.40;99.90;;;;;;5014702;28;20413;-73
2023/08/01 10:15:51;;;;;;;7.93;1.48;;;19.50;99.90;;;;;;5010482;28;20029;-74
2023/08/01 10:18:17;;;;;;;1.77;1.35;;;19.40;99.90;;;;;;5022488;28;20080;-84
2023/08/01 10:20:44;;;;;;;8.07;1.33;;;19.50;99.90;;;;;;5022426;28;20417;-73
2023/08/01 10:23:11;;;;;;;4.95;1.75;;;19.70;99.90;;;;;;5016429;28;20417;-73
2023/08/01 10:25:38;;;;;;;5.03;1.33;;;20.10;99.90;;;;;;5027269;28;20124;-72
2023/08/01 10:28:06;;;;;;;2.75;1.13;;;20.50;99.90;;;;;;5017905;28;20057;-73
2023/08/01 10:30:32;;;;;;;2.85;1.02;;;20.60;99.90;;;;;;5015100;28;20030;-82
2023/08/01 10:32:59;;;;;;;3.75;1.65;;;20.70;99.90;;;;;;5017005;28;20041;-72
2023/08/01 10:35:37;;;;;;;2.47;0.80;;;20.70;99.90;;;;;;5017229;28;20057;-73
2023/08/01 10:38:09;;;;;;;3.05;1.25;;;20.80;99.90;;;;;;5043338;28;20429;-72
2023/08/01 10:40:39;;;;;;;4.03;0.80;;;20.70;99.90;;;;;;5014926;28;20157;-72
2023/08/01 10:43:05;;;;;;;3.58;1.10;;;20.80;99.90;;;;;;5004898;28;20317;-73
2023/08/01 10:45:31;;;;;;;1.48;0.85;;;20.70;99.90;;;;;;5016316;28;20036;-72
2023/08/01 10:48:10;;;;;;;12.02;1.20;;;20.60;99.90;;;;;;5016812;28;20022;-72
2023/08/01 10:50:36;;;;;;;4.20;1.27;;;20.30;99.90;;;;;;5017770;28;20040;-73
2023/08/01 10:53:08;;;;;;;2.63;1.15;;;20.00;99.90;;;;;;5019931;28;20316;-73
2023/08/01 10:55:45;;;;;;;3.80;1.27;;;19.70;99.90;;;;;;5015936;28;20044;-74
2023/08/01 10:58:11;;;;;;;6.72;1.23;;;19.70;99.90;;;;;;5015104;28;20048;-72
2023/08/01 11:00:38;;;;;;;4.10;1.70;;;19.70;99.90;;;;;;5031592;28;20421;-73
2023/08/01 11:03:04;;;;;;;3.60;1.33;;;19.90;99.90;;;;;;5017140;28;20467;-74
2023/08/01 11:05:29;;;;;;;6.60;1.40;;;20.10;99.90;;;;;;5019595;28;20022;-73
2023/08/01 11:08:01;;;;;;;2.90;1.07;;;20.20;99.90;;;;;;5017808;28;20323;-73
2023/08/01 11:10:29;;;;;;;7.22;1.50;;;20.00;99.90;;;;;;5016651;28;20076;-86
2023/08/01 11:12:55;;;;;;;4.78;1.10;;;19.80;99.90;;;;;;5004255;28;20030;-73
2023/08/01 11:15:21;;;;;;;3.33;0.90;;;19.60;99.90;;;;;;5021351;28;20534;-73
2023/08/01 11:17:49;;;;;;;5.60;1.17;;;19.40;99.90;;;;;;5019925;28;20667;-72
2023/08/01 11:20:15;;;;;;;3.22;0.80;;;19.20;99.90;;;;;;5010141;28;20033;-73
2023/08/01 11:23:01;;;;;;;3.53;1.00;;;19.10;99.90;;;;;;5040020;28;20033;-73
2023/08/01 11:25:40;;;;;;;2.05;1.23;;;19.00;99.90;;;;;;5002204;28;20050;-87
2023/08/01 11:28:08;;;;;;;5.28;1.45;;;18.80;99.90;;;;;;5007731;28;20108;-72
2023/08/01 11:30:35;;;;;;;5.82;1.35;;;18.80;99.90;;;;;;5018416;28;20030;-72
2023/08/01 11:33:02;;;;;;;3.13;1.48;;;18.60;99.90;;;;;;5018935;28;20045;-88
2023/08/01 11:35:28;;;;;;;6.93;1.33;;;18.60;99.90;;;;;;5019604;28;20317;-72
2023/08/01 11:37:55;;;;;;;5.43;1.10;;;18.50;99.90;;;;;;5019910;28;20037;-89
2023/08/01 11:40:21;;;;;;;3.88;1.27;;;18.60;99.90;;;;;;5011402;28;20502;-80
2023/08/01 11:42:52;;;;;;;5.05;1.38;;;18.70;99.90;;;;;;5023907;28;20101;-73
2023/08/01 11:45:18;;;;;;;3.35;1.00;;;18.90;99.90;;;;;;5017931;28;20045;-83
2023/08/01 11:47:48;;;;;;;4.03;1.23;;;19.00;99.90;;;;;;5020619;28;20015;-72
2023/08/01 11:50:14;;;;;;;1.23;1.05;;;19.10;99.90;;;;;;5019678;28;20487;-86
2023/08/01 11:52:40;;;;;;;3.50;1.25;;;19.10;99.90;;;;;;5025849;28;20341;-72
2023/08/01 11:55:07;;;;;;;8.00;1.58;;;19.30;99.90;;;;;;5020512;28;20033;-74
2023/08/01 11:57:32;;;;;;;6.47;1.52;;;19.70;99.90;;;;;;5021468;28;20354;-71
2023/08/01 11:59:58;;;;;;;4.17;1.53;;;20.20;99.90;;;;;;5020598;28;20113;-73
2023/08/01 12:02:24;;;;;;;2.73;1.27;;;20.70;99.90;;;;;;5026522;28;20420;-73
2023/08/01 12:04:51;;;;;;;3.30;1.30;;;21.00;99.90;;;;;;5013326;28;20628;-85
2023/08/01 12:07:17;;;;;;;7.82;1.42;;;21.20;99.90;;;;;;5029640;28;20371;-81
2023/08/01 12:09:45;;;;;;;3.28;1.10;;;21.40;99.90;;;;;;5032582;28;20045;-72
2023/08/01 12:12:11;;;;;;;4.00;1.02;;;21.40;99.90;;;;;;5028092;28;20525;-72
2023/08/01 12:14:41;;;;;;;7.47;1.23;;;21.60;99.90;;;;;;5013887;28;20033;-72
2023/08/01 12:17:06;;;;;;;6.28;1.33;;;21.60;99.90;;;;;;5008233;28;20333;-88
2023/08/01 12:19:33;;;;;;;3.97;0.83;;;21.50;99.90;;;;;;5015276;28;20030;-72
2023/08/01 12:22:00;;;;;;;4.65;1.20;;;21.30;99.90;;;;;;5019652;28;20104;-86
2023/08/01 12:24:25;;;;;;;1.02;0.70;;;21.30;99.90;;;;;;5019273;28;20117;-72
2023/08/01 12:26:51;;;;;;;6.07;1.07;;;21.20;99.90;;;;;;5019900;28;20116;-73
2023/08/01 12:29:17;;;;;;;3.33;1.37;;;21.30;99.90;;;;;;5014404;28;20049;-77
2023/08/01 12:31:42;;;;;;;4.50;1.20;;;21.50;99.90;;;;;;5015922;28;20105;-73
2023/08/01 12:34:08;;;;;;;2.50;1.20;;;21.50;99.90;;;;;;5015048;28;20029;-71
2023/08/01 12:36:34;;;;;;;2.30;0.80;;;21.30;99.90;;;;;;5015592;28;20048;-73
2023/08/01 12:38:59;;;;;;;4.03;0.70;;;21.10;99.90;;;;;;5013923;28;20088;-82
2023/08/01 12:41:25;;;;;;;3.73;1.10;;;20.70;99.90;;;;;;5014428;28;20029;-73
2023/08/01 12:43:51;;;;;;;3.20;1.17;;;20.40;99.90;;;;;;5015768;28;20125;-72